Salmon, ID

11:07 AM MST on February 23, 2019 (GMT -0700)
South St Charles | | Change Station

Elev 3071 ft 45.17 °N, 113.90 °W | Updated 21 seconds ago

Overcast
Overcast
24.1 °F
Feels Like 24 °F
N
0.7
Wind Variable Wind from NW
Gusts 1.1 mph

Today
High -- | Low -- °F
--% Chance of Precip.
Yesterday
High -- | Low -- °F
Precip. -- in
Pressure 30.23 in
Visibility 10.0 miles
Clouds Few 4000 ft
Overcast 6000 ft
Windchill 24 °F
Dew Point 13 °F
Humidity 62%
Rainfall 0.00 in
Snow Depth Not available.
7:24 AM 6:14 PM
Waning Gibbous, 78% visible
METAR KSMN 231756Z AUTO 24003KT 10SM FEW040 OVC060 M06/M12 A3006 RMK AO2 SLP236 60000 T10611117 11056 21089 51010 FZRANO
Pressure 30.23 in
Visibility 10.0 miles
Clouds Few 4000 ft
Overcast 6000 ft
Windchill 24 °F
Dew Point 13 °F
Humidity 62%
Rainfall 0.00 in
Snow Depth Not available.
7:24 AM 6:14 PM
Waning Gibbous, 78% visible
METAR KSMN 231756Z AUTO 24003KT 10SM FEW040 OVC060 M06/M12 A3006 RMK AO2 SLP236 60000 T10611117 11056 21089 51010 FZRANO

Get Severe Weather Alerts

Thanks for signing up!

Be on the lookout for a verification email in your inbox.

You'll start receiving the daily forecast at 6 AM.

×

10-Day Weather Forecast

Almanac

Astronomy

Feb. 23, 2019 Rise Set
Actual Time
Civil Twilight
Nautical Twilight
Astronomical Twilight
Moon
Length of Visible Light
Length of Day
Tomorrow will be .
, % of the Moon is Illuminated

Today's Extremes

State Highs State Lows

Community

WunderPhotos

Category 6

Welcome to Category 6. This is the collective home for Weather Underground's featured writeups by Dr. Jeff Masters (right), Bob Henson (left), Chris Burt, and other regular contributors.

Nearby

Air Quality

  Air Quality AQ Index Pollutant
Not available.

Snow Depth

Station Depth Elevation

Earthquake Activity

City Distance Mag. Time & Date
Minimum magnitude displayed is 2.5.

Coastal Water Temperatures

Place Temperature

Stations

Nearby Weather Stations

Station Location Temp. Windchill Dew Point Humidity Wind Precip. Elev Updated Type
                   

Watches & Warnings

There are currently no watches in effect.